KELN/ELN METAR and TAF weather

Enter ICAO airport designator
Station Type Date Time Source
KELN METAR 2019/04/25 20:53 UTC NOAA

KELN 252053Z AUTO VRB03KT 10SM CLR 18/00 A3011 RMK AO2 SLP197 T01830000 58024


Station Type Date Time Source
KELN Decoded METAR 2019/04/25 20:53 UTC NOAA

ELLENSBURG BOWERS FIELD, WA, United States (KELN) 47-02N 120-32W 519M
Apr 25, 2019 - 04:53 PM EDT / 2019.04.25 2053 UTC
Wind: Variable at 3 MPH (3 KT):0
Visibility: 10 mile(s):0
Sky conditions: clear
Temperature: 64.9 F (18.3 C)
Dew Point: 32.0 F (0.0 C)
Relative Humidity: 29%
Pressure (altimeter): 30.11 in. Hg (1019 hPa)
Pressure tendency: 0.07 inches (2.4 hPa) lower than three hours ago
ob: KELN 252053Z AUTO VRB03KT 10SM CLR 18/00 A3011 RMK AO2 SLP197 T01830000 58024
cycle: 21

Station Type Date Time Source
KELN TAF UTC NOAA

Error!

Example: see airport list